createdAt,value
2023-01-25T00:00:01.889Z,45.84
2023-01-25T00:02:28.590Z,46.37
2023-01-25T00:04:55.228Z,45.58
2023-01-25T00:07:21.801Z,46.09
2023-01-25T00:09:48.347Z,46.51
2023-01-25T00:12:14.943Z,47.79
2023-01-25T00:14:41.677Z,47.17
2023-01-25T00:17:08.299Z,47.09
2023-01-25T00:19:34.840Z,47.41
2023-01-25T00:22:01.385Z,47.57
2023-01-25T00:24:28.115Z,46.54
2023-01-25T00:26:54.685Z,47.54
2023-01-25T00:29:21.434Z,48.82
2023-01-25T00:31:58.965Z,48.05
2023-01-25T00:34:25.568Z,47.35
2023-01-25T00:37:01.167Z,46.86
2023-01-25T00:39:27.899Z,47.05
2023-01-25T00:41:55.149Z,48.07
2023-01-25T00:44:21.887Z,47.77
2023-01-25T00:46:48.933Z,46.99
2023-01-25T00:49:22.754Z,47.64
2023-01-25T00:51:49.865Z,46.77
2023-01-25T00:54:16.834Z,45.56
2023-01-25T00:56:43.402Z,46.82
2023-01-25T00:59:10.620Z,47.31
2023-01-25T01:01:37.344Z,47.60
2023-01-25T01:04:05.753Z,47.16
2023-01-25T01:06:35.647Z,47.44
2023-01-25T01:09:03.203Z,46.13
2023-01-25T01:11:31.492Z,47.25
2023-01-25T01:13:59.110Z,45.34
2023-01-25T01:16:26.468Z,44.56
2023-01-25T01:18:53.472Z,46.17
2023-01-25T01:21:20.293Z,46.75
2023-01-25T01:23:47.269Z,45.88
2023-01-25T01:26:15.414Z,46.68
2023-01-25T01:28:42.762Z,47.40
2023-01-25T01:31:12.187Z,47.82
2023-01-25T01:33:38.802Z,48.04
2023-01-25T01:36:13.322Z,48.34
2023-01-25T01:38:39.954Z,46.67
2023-01-25T01:41:07.138Z,47.64
2023-01-25T01:43:33.951Z,47.47
2023-01-25T01:46:02.445Z,46.71
2023-01-25T01:48:38.273Z,45.69
2023-01-25T01:51:16.779Z,46.25
2023-01-25T01:53:47.021Z,47.12
2023-01-25T01:56:18.164Z,46.55
2023-01-25T01:58:46.421Z,48.09
2023-01-25T02:01:13.324Z,47.41
2023-01-25T02:03:40.655Z,46.93
2023-01-25T02:06:14.650Z,46.99
2023-01-25T02:08:43.148Z,47.44
2023-01-25T02:11:12.203Z,47.29
2023-01-25T02:13:38.763Z,46.65
2023-01-25T02:16:07.037Z,46.75
2023-01-25T02:18:33.596Z,47.67
2023-01-25T02:21:01.877Z,47.79
2023-01-25T02:23:31.537Z,48.84
2023-01-25T02:26:01.282Z,47.69
2023-01-25T02:28:32.122Z,48.77
2023-01-25T02:30:58.644Z,48.29
2023-01-25T02:33:26.301Z,48.65
2023-01-25T02:35:58.691Z,48.20
2023-01-25T02:38:25.312Z,48.76
2023-01-25T02:41:02.057Z,48.07
2023-01-25T02:43:31.562Z,46.87
2023-01-25T02:46:02.331Z,49.73
2023-01-25T02:48:28.940Z,48.70
2023-01-25T02:50:55.470Z,48.09
2023-01-25T02:53:22.010Z,47.41
2023-01-25T02:55:48.533Z,47.47
2023-01-25T02:58:15.074Z,47.85
2023-01-25T03:00:42.642Z,47.24
2023-01-25T03:03:09.218Z,47.76
2023-01-25T03:05:36.125Z,47.80
2023-01-25T03:08:02.745Z,47.71
2023-01-25T03:10:29.281Z,48.14
2023-01-25T03:12:56.032Z,47.82
2023-01-25T03:15:22.612Z,48.51
2023-01-25T03:17:49.201Z,48.02
2023-01-25T03:20:15.876Z,47.14
2023-01-25T03:22:43.202Z,47.18
2023-01-25T03:25:10.567Z,48.90
2023-01-25T03:27:37.282Z,48.91
2023-01-25T03:30:04.375Z,47.92
2023-01-25T03:32:30.994Z,46.50
2023-01-25T03:34:59.073Z,46.07
2023-01-25T03:37:31.115Z,46.73
2023-01-25T03:39:58.272Z,45.86
2023-01-25T03:42:24.979Z,45.83
2023-01-25T03:44:51.517Z,45.26
2023-01-25T03:47:18.117Z,46.15
2023-01-25T03:49:44.707Z,45.09
2023-01-25T03:52:11.324Z,44.69
2023-01-25T03:54:37.869Z,45.07
2023-01-25T03:57:04.392Z,45.74
2023-01-25T03:59:31.026Z,44.26
2023-01-25T04:01:57.620Z,44.12
2023-01-25T04:04:24.257Z,44.25
2023-01-25T04:06:50.832Z,44.31
2023-01-25T04:09:17.600Z,45.24
2023-01-25T04:11:44.112Z,45.32
2023-01-25T04:14:11.166Z,45.54
2023-01-25T04:16:37.774Z,45.31
2023-01-25T04:19:04.459Z,44.94
2023-01-25T04:21:31.094Z,46.18
2023-01-25T04:23:57.761Z,44.79
2023-01-25T04:26:24.891Z,44.25
2023-01-25T04:28:51.386Z,43.97
2023-01-25T04:31:17.991Z,44.94
2023-01-25T04:33:44.599Z,44.75
2023-01-25T04:36:11.230Z,45.96
2023-01-25T04:38:37.785Z,46.03
2023-01-25T04:41:05.326Z,45.29
2023-01-25T04:43:31.937Z,45.14
2023-01-25T04:46:01.240Z,46.78
2023-01-25T04:48:27.795Z,46.62
2023-01-25T04:50:54.311Z,47.04
2023-01-25T04:53:20.971Z,48.84
2023-01-25T04:55:47.899Z,49.60
2023-01-25T04:58:14.928Z,48.64
2023-01-25T05:00:41.459Z,49.40
2023-01-25T05:03:08.047Z,50.23
2023-01-25T05:05:34.775Z,49.14
2023-01-25T05:08:01.267Z,50.09
2023-01-25T05:10:27.804Z,51.50
2023-01-25T05:12:54.251Z,51.95
2023-01-25T05:15:20.818Z,52.09
2023-01-25T05:17:47.335Z,51.96
2023-01-25T05:20:13.888Z,51.11
2023-01-25T05:22:40.517Z,52.01
2023-01-25T05:25:27.387Z,50.87
2023-01-25T05:27:53.959Z,50.18
2023-01-25T05:30:20.635Z,51.80
2023-01-25T05:32:48.050Z,54.50
2023-01-25T05:35:14.576Z,53.94
2023-01-25T05:37:41.191Z,55.26
2023-01-25T05:40:08.482Z,54.93
2023-01-25T05:42:35.071Z,55.88
2023-01-25T05:45:01.629Z,56.00
2023-01-25T05:47:28.255Z,54.99
2023-01-25T05:49:54.807Z,57.11
2023-01-25T05:52:21.312Z,57.92
2023-01-25T05:54:48.491Z,57.44
2023-01-25T05:57:15.755Z,55.09
2023-01-25T05:59:42.376Z,54.18
2023-01-25T06:02:08.940Z,55.75
2023-01-25T06:04:35.428Z,55.82
2023-01-25T06:07:01.974Z,54.23
2023-01-25T06:09:28.447Z,55.55
2023-01-25T06:11:55.026Z,56.23
2023-01-25T06:14:23.328Z,54.30
2023-01-25T06:16:50.042Z,54.88
2023-01-25T06:19:16.715Z,53.26
2023-01-25T06:21:43.319Z,53.77
2023-01-25T06:24:09.928Z,54.75
2023-01-25T06:26:36.610Z,54.90
2023-01-25T06:29:05.396Z,53.02
2023-01-25T06:31:31.980Z,52.00
2023-01-25T06:34:01.124Z,53.21
2023-01-25T06:36:27.849Z,54.35
2023-01-25T06:38:54.379Z,55.37
2023-01-25T06:41:21.525Z,55.62
2023-01-25T06:43:50.520Z,54.99
2023-01-25T06:46:17.126Z,54.22
2023-01-25T06:48:43.691Z,55.18
2023-01-25T06:51:11.987Z,55.23
2023-01-25T06:53:40.491Z,53.69
2023-01-25T06:56:12.021Z,54.83
2023-01-25T06:58:39.589Z,54.50
2023-01-25T07:01:23.001Z,53.14
2023-01-25T07:03:50.547Z,50.49
2023-01-25T07:06:17.820Z,49.96
2023-01-25T07:08:44.380Z,49.22
2023-01-25T07:11:13.868Z,48.64
2023-01-25T07:13:41.912Z,49.41
2023-01-25T07:16:11.676Z,49.79
2023-01-25T07:18:38.214Z,49.53
2023-01-25T07:21:06.443Z,49.93
2023-01-25T07:23:34.513Z,51.63
2023-01-25T07:26:01.358Z,50.55
2023-01-25T07:28:28.600Z,51.31
2023-01-25T07:30:55.153Z,54.68
2023-01-25T07:33:21.770Z,50.72
2023-01-25T07:35:50.964Z,52.76
2023-01-25T07:38:17.973Z,52.92
2023-01-25T07:40:44.574Z,53.04
2023-01-25T07:43:11.010Z,52.74
2023-01-25T07:45:37.608Z,51.63
2023-01-25T07:48:10.601Z,52.89
2023-01-25T07:50:37.153Z,52.67
2023-01-25T07:53:03.726Z,52.29
2023-01-25T07:55:30.765Z,52.63
2023-01-25T07:57:57.309Z,52.71
2023-01-25T08:00:25.026Z,52.67
2023-01-25T08:02:52.183Z,53.91
2023-01-25T08:05:19.350Z,53.28
2023-01-25T08:07:46.111Z,52.33
2023-01-25T08:10:12.709Z,52.64
2023-01-25T08:12:39.382Z,52.84
2023-01-25T08:15:06.474Z,52.22
2023-01-25T08:17:33.263Z,51.98
2023-01-25T08:20:01.663Z,53.51
2023-01-25T08:22:28.484Z,53.61
2023-01-25T08:24:55.165Z,52.70
2023-01-25T08:27:21.713Z,55.45
2023-01-25T08:29:50.454Z,55.90
2023-01-25T08:32:17.045Z,53.75
2023-01-25T08:34:43.559Z,52.69
2023-01-25T08:37:10.154Z,54.45
2023-01-25T08:39:36.679Z,54.24
2023-01-25T08:42:03.262Z,53.82
2023-01-25T08:44:29.814Z,51.12
2023-01-25T08:46:56.282Z,52.74
2023-01-25T08:49:22.877Z,52.77
2023-01-25T08:51:50.425Z,51.76
2023-01-25T08:54:16.983Z,51.33
2023-01-25T08:56:43.532Z,50.47
2023-01-25T08:59:13.830Z,49.19
2023-01-25T09:01:40.571Z,51.12
2023-01-25T09:04:07.151Z,53.63
2023-01-25T09:06:33.897Z,55.15
2023-01-25T09:09:00.546Z,53.32
2023-01-25T09:11:27.464Z,54.18
2023-01-25T09:13:54.055Z,55.22
2023-01-25T09:16:28.471Z,57.23
2023-01-25T09:18:57.710Z,55.65
2023-01-25T09:21:24.303Z,51.20
2023-01-25T09:24:05.649Z,50.50
2023-01-25T09:26:34.593Z,50.98
2023-01-25T09:29:01.283Z,51.92
2023-01-25T09:31:29.516Z,53.63
2023-01-25T09:33:57.245Z,53.16
2023-01-25T09:36:24.006Z,53.30
2023-01-25T09:38:50.569Z,53.50
2023-01-25T09:41:23.419Z,54.05
2023-01-25T09:44:04.561Z,52.03
2023-01-25T09:46:37.060Z,52.07
2023-01-25T09:49:07.632Z,53.47
2023-01-25T09:51:52.380Z,53.61
2023-01-25T09:54:20.886Z,53.89
2023-01-25T09:56:49.950Z,53.01
2023-01-25T09:59:21.387Z,56.08
2023-01-25T10:01:54.033Z,56.12
2023-01-25T10:04:30.477Z,56.88
2023-01-25T10:07:02.789Z,58.59
2023-01-25T10:09:48.214Z,59.05
2023-01-25T10:12:17.605Z,58.82
2023-01-25T10:14:44.221Z,60.47
2023-01-25T10:17:20.069Z,60.87
2023-01-25T10:19:49.792Z,60.88
2023-01-25T10:22:16.410Z,61.93
2023-01-25T10:24:54.849Z,61.15
2023-01-25T10:27:40.355Z,61.78
2023-01-25T10:30:25.943Z,60.47
2023-01-25T10:32:56.292Z,61.77
2023-01-25T10:35:35.441Z,59.92
2023-01-25T10:38:13.350Z,63.19
2023-01-25T10:40:50.345Z,63.67
2023-01-25T10:43:23.454Z,61.10
2023-01-25T10:45:50.494Z,61.69
2023-01-25T10:48:22.363Z,62.89
2023-01-25T10:50:51.810Z,62.47
2023-01-25T10:53:21.264Z,62.50
2023-01-25T10:56:23.203Z,62.60
2023-01-25T10:58:51.665Z,64.80
2023-01-25T11:01:27.645Z,64.18
2023-01-25T11:03:54.406Z,64.90
2023-01-25T11:06:47.105Z,62.32
2023-01-25T11:09:22.887Z,64.25
2023-01-25T11:11:56.362Z,65.41
2023-01-25T11:14:24.534Z,65.07
2023-01-25T11:16:51.165Z,65.84
2023-01-25T11:19:27.255Z,63.89
2023-01-25T11:21:55.207Z,66.11
2023-01-25T11:24:25.875Z,64.96
2023-01-25T11:27:11.307Z,66.86
2023-01-25T11:29:40.715Z,66.60
2023-01-25T11:32:22.670Z,68.38
2023-01-25T11:34:50.568Z,67.81
2023-01-25T11:37:26.514Z,66.03
2023-01-25T11:40:09.883Z,67.34
2023-01-25T11:42:58.510Z,67.41
2023-01-25T11:45:24.953Z,66.30
2023-01-25T11:47:51.464Z,66.49
2023-01-25T11:50:28.499Z,66.50
2023-01-25T11:53:13.921Z,66.28
2023-01-25T11:55:40.401Z,65.90
2023-01-25T11:58:19.334Z,66.92
2023-01-25T12:00:59.963Z,68.34
2023-01-25T12:03:29.352Z,68.43
2023-01-25T12:06:22.518Z,67.32
2023-01-25T12:08:49.034Z,66.23
2023-01-25T12:11:15.575Z,69.15
2023-01-25T12:13:55.126Z,69.01
2023-01-25T12:16:38.442Z,69.83
2023-01-25T12:19:13.937Z,67.73
2023-01-25T12:21:40.633Z,71.04
2023-01-25T12:24:33.355Z,70.43
2023-01-25T12:27:02.671Z,69.54
2023-01-25T12:29:55.780Z,69.37
2023-01-25T12:32:37.262Z,68.58
2023-01-25T12:35:12.662Z,68.41
2023-01-25T12:37:42.672Z,66.49
2023-01-25T12:40:38.651Z,65.66
2023-01-25T12:43:12.815Z,67.61
2023-01-25T12:45:41.701Z,66.77
2023-01-25T12:48:28.511Z,68.39
2023-01-25T12:50:57.044Z,67.42
2023-01-25T12:53:34.856Z,65.65
2023-01-25T12:56:02.145Z,66.84
2023-01-25T12:58:38.212Z,66.03
2023-01-25T13:01:07.804Z,69.31
2023-01-25T13:03:53.214Z,68.65
2023-01-25T13:06:37.333Z,68.77
2023-01-25T13:09:10.026Z,68.64
2023-01-25T13:11:39.639Z,66.78
2023-01-25T13:14:18.580Z,68.45
2023-01-25T13:16:50.138Z,72.28
2023-01-25T13:19:42.185Z,73.05
2023-01-25T13:22:10.804Z,73.42
2023-01-25T13:24:56.291Z,73.29
2023-01-25T13:27:30.443Z,73.07
2023-01-25T13:30:15.732Z,72.49
2023-01-25T13:32:45.281Z,71.85
2023-01-25T13:35:26.691Z,68.97
2023-01-25T13:38:04.880Z,69.36
2023-01-25T13:40:31.460Z,67.77
2023-01-25T13:43:00.328Z,68.09
2023-01-25T13:45:27.245Z,67.21
2023-01-25T13:48:04.050Z,65.61
2023-01-25T13:50:34.264Z,62.47
2023-01-25T13:53:06.002Z,64.70
2023-01-25T13:55:40.356Z,61.83
2023-01-25T13:58:30.197Z,61.56
2023-01-25T14:01:04.388Z,60.15
2023-01-25T14:03:37.404Z,60.34
2023-01-25T14:06:04.493Z,62.79
2023-01-25T14:08:32.223Z,59.05
2023-01-25T14:10:59.249Z,59.05
2023-01-25T14:13:25.966Z,56.34
2023-01-25T14:15:54.279Z,58.09
2023-01-25T14:18:21.768Z,59.43
2023-01-25T14:20:49.834Z,57.34
2023-01-25T14:23:23.704Z,57.54
2023-01-25T14:25:50.714Z,57.94
2023-01-25T14:28:18.123Z,57.76
2023-01-25T14:30:50.401Z,57.99
2023-01-25T14:33:17.189Z,56.50
2023-01-25T14:35:54.800Z,57.42
2023-01-25T14:38:24.622Z,57.47
2023-01-25T14:40:54.853Z,57.67
2023-01-25T14:43:23.008Z,58.40
2023-01-25T14:45:49.630Z,57.48
2023-01-25T14:48:35.136Z,60.49
2023-01-25T14:51:11.447Z,61.34
2023-01-25T14:53:40.579Z,59.80
2023-01-25T14:56:18.588Z,58.77
2023-01-25T14:58:45.345Z,59.01
2023-01-25T15:01:24.248Z,61.43
2023-01-25T15:03:50.917Z,60.06
2023-01-25T15:06:17.549Z,60.74
2023-01-25T15:08:44.097Z,62.59
2023-01-25T15:11:48.997Z,61.77
2023-01-25T15:14:18.253Z,63.29
2023-01-25T15:16:45.150Z,63.78
2023-01-25T15:19:22.568Z,65.52
2023-01-25T15:21:49.463Z,67.18
2023-01-25T15:24:16.702Z,68.07
2023-01-25T15:26:43.307Z,70.11
2023-01-25T15:29:13.746Z,71.64
2023-01-25T15:31:41.490Z,72.36
2023-01-25T15:34:15.407Z,73.11
2023-01-25T15:36:41.985Z,72.42
2023-01-25T15:39:14.080Z,72.93
2023-01-25T15:41:40.688Z,72.21
2023-01-25T15:44:07.679Z,72.35
2023-01-25T15:46:36.125Z,72.70
2023-01-25T15:49:04.386Z,71.58
2023-01-25T15:51:35.346Z,68.64
2023-01-25T15:54:02.297Z,67.91
2023-01-25T15:56:31.283Z,66.18
2023-01-25T15:58:59.908Z,62.51
2023-01-25T16:01:28.050Z,59.94
2023-01-25T16:03:58.706Z,60.46
2023-01-25T16:06:43.954Z,61.53
2023-01-25T16:09:16.615Z,60.42
2023-01-25T16:11:43.552Z,58.39
2023-01-25T16:14:10.240Z,59.54
2023-01-25T16:16:41.599Z,58.77
2023-01-25T16:19:13.212Z,60.16
2023-01-25T16:21:40.357Z,60.09
2023-01-25T16:24:07.556Z,60.85
2023-01-25T16:26:37.206Z,60.05
2023-01-25T16:29:03.784Z,60.08
2023-01-25T16:31:33.174Z,59.85
2023-01-25T16:34:00.777Z,62.01
2023-01-25T16:36:27.963Z,61.59
2023-01-25T16:38:54.633Z,60.53
2023-01-25T16:41:21.260Z,61.18
2023-01-25T16:43:49.103Z,61.95
2023-01-25T16:46:20.849Z,60.94
2023-01-25T16:48:48.550Z,60.35
2023-01-25T16:51:18.236Z,59.41
2023-01-25T16:53:45.762Z,61.18
2023-01-25T16:56:26.227Z,60.87
2023-01-25T16:58:53.895Z,61.43
2023-01-25T17:01:21.496Z,62.07
2023-01-25T17:03:48.900Z,60.56
2023-01-25T17:06:23.884Z,62.71
2023-01-25T17:08:50.630Z,64.04
2023-01-25T17:11:21.625Z,65.39
2023-01-25T17:13:52.503Z,64.79
2023-01-25T17:16:20.336Z,62.49
2023-01-25T17:18:47.502Z,63.29
2023-01-25T17:21:15.254Z,62.87
2023-01-25T17:23:42.710Z,63.75
2023-01-25T17:26:12.381Z,64.98
2023-01-25T17:28:38.963Z,65.57
2023-01-25T17:31:06.646Z,66.35
2023-01-25T17:33:33.539Z,66.75
2023-01-25T17:36:03.674Z,64.78
2023-01-25T17:38:30.216Z,65.16
2023-01-25T17:40:56.757Z,67.04
2023-01-25T17:43:23.555Z,67.38
2023-01-25T17:45:50.128Z,66.55
2023-01-25T17:48:16.657Z,66.08
2023-01-25T17:50:43.489Z,67.05
2023-01-25T17:53:10.111Z,67.68
2023-01-25T17:55:37.356Z,66.73
2023-01-25T17:58:04.037Z,66.93
2023-01-25T18:00:30.744Z,68.44
2023-01-25T18:02:58.419Z,68.12
2023-01-25T18:05:27.945Z,68.70
2023-01-25T18:07:54.455Z,69.63
2023-01-25T18:10:20.982Z,72.06
2023-01-25T18:13:03.580Z,70.29
2023-01-25T18:15:31.567Z,65.90
2023-01-25T18:17:58.420Z,71.46
2023-01-25T18:20:25.021Z,72.45
2023-01-25T18:22:52.080Z,74.01
2023-01-25T18:25:35.342Z,73.03
2023-01-25T18:28:01.986Z,74.06
2023-01-25T18:30:38.774Z,72.90
2023-01-25T18:33:05.716Z,78.22
2023-01-25T18:35:32.749Z,78.37
2023-01-25T18:37:59.691Z,78.55
2023-01-25T18:40:26.386Z,79.53
2023-01-25T18:42:53.054Z,77.38
2023-01-25T18:45:19.692Z,80.10
2023-01-25T18:47:46.853Z,80.23
2023-01-25T18:50:16.215Z,80.16
2023-01-25T18:52:43.463Z,82.03
2023-01-25T18:55:11.331Z,82.29
2023-01-25T18:57:38.722Z,79.46
2023-01-25T19:00:06.198Z,80.49
2023-01-25T19:02:32.835Z,79.96
2023-01-25T19:05:00.471Z,81.78
2023-01-25T19:07:27.269Z,81.89
2023-01-25T19:09:53.857Z,85.72
2023-01-25T19:12:20.514Z,81.88
2023-01-25T19:14:47.020Z,82.10
2023-01-25T19:17:13.684Z,84.71
2023-01-25T19:19:40.684Z,86.68
2023-01-25T19:22:07.429Z,87.89
2023-01-25T19:24:34.002Z,87.68
2023-01-25T19:27:00.781Z,89.34
2023-01-25T19:29:27.424Z,91.25
2023-01-25T19:31:54.254Z,90.36
2023-01-25T19:34:20.900Z,92.14
2023-01-25T19:36:50.046Z,94.25
2023-01-25T19:39:17.347Z,91.98
2023-01-25T19:41:43.895Z,93.91
2023-01-25T19:44:11.546Z,95.59
2023-01-25T19:46:38.213Z,96.19
2023-01-25T19:49:08.040Z,94.71
2023-01-25T19:51:36.742Z,96.07
2023-01-25T19:54:08.390Z,96.58
2023-01-25T19:56:36.628Z,95.13
2023-01-25T19:59:04.416Z,96.34
2023-01-25T20:01:31.101Z,95.70
2023-01-25T20:03:58.950Z,97.62
2023-01-25T20:06:26.251Z,97.36
2023-01-25T20:08:53.328Z,97.11
2023-01-25T20:11:21.784Z,97.39
2023-01-25T20:13:49.419Z,98.23
2023-01-25T20:16:18.683Z,97.02
2023-01-25T20:18:46.071Z,97.03
2023-01-25T20:21:20.606Z,97.30
2023-01-25T20:23:49.821Z,95.40
2023-01-25T20:26:21.989Z,97.39
2023-01-25T20:28:53.271Z,96.05
2023-01-25T20:31:27.530Z,95.34
2023-01-25T20:33:55.797Z,93.50
2023-01-25T20:36:23.169Z,94.25
2023-01-25T20:38:50.097Z,94.74
2023-01-25T20:41:18.275Z,94.02
2023-01-25T20:43:48.103Z,96.50
2023-01-25T20:46:15.862Z,94.22
2023-01-25T20:48:42.521Z,94.28
2023-01-25T20:51:10.682Z,90.86
2023-01-25T20:53:37.296Z,89.16
2023-01-25T20:56:03.914Z,88.61
2023-01-25T20:58:30.454Z,88.75
2023-01-25T21:00:57.144Z,91.53
2023-01-25T21:03:24.235Z,87.99
2023-01-25T21:05:51.452Z,85.82
2023-01-25T21:08:19.015Z,83.92
2023-01-25T21:10:56.997Z,87.01
2023-01-25T21:13:24.415Z,83.75
2023-01-25T21:16:23.610Z,78.73
2023-01-25T21:18:51.989Z,82.35
2023-01-25T21:21:20.228Z,78.98
2023-01-25T21:23:48.477Z,78.31
2023-01-25T21:26:16.701Z,79.92
2023-01-25T21:28:43.350Z,77.55
2023-01-25T21:31:23.964Z,77.72
2023-01-25T21:33:50.774Z,79.73
2023-01-25T21:36:17.947Z,78.08
2023-01-25T21:38:46.385Z,75.82
2023-01-25T21:41:14.576Z,79.51
2023-01-25T21:43:59.524Z,79.19
2023-01-25T21:46:27.250Z,78.33
2023-01-25T21:49:13.020Z,77.48
2023-01-25T21:51:47.018Z,75.94
2023-01-25T21:54:14.878Z,73.08
2023-01-25T21:56:41.846Z,74.82
2023-01-25T21:59:08.675Z,73.53
2023-01-25T22:01:35.438Z,73.19
2023-01-25T22:04:02.000Z,73.75
2023-01-25T22:06:28.965Z,73.51
2023-01-25T22:08:55.515Z,71.66
2023-01-25T22:11:22.312Z,71.86
2023-01-25T22:13:48.852Z,72.00
2023-01-25T22:16:15.436Z,74.75
2023-01-25T22:18:42.691Z,73.75
2023-01-25T22:21:20.089Z,72.82
2023-01-25T22:23:47.445Z,73.59
2023-01-25T22:26:16.279Z,71.94
2023-01-25T22:28:48.351Z,71.98
2023-01-25T22:31:16.302Z,69.74
2023-01-25T22:33:42.971Z,68.54
2023-01-25T22:36:11.287Z,64.89
2023-01-25T22:38:37.953Z,65.91
2023-01-25T22:41:05.365Z,63.34
2023-01-25T22:43:32.089Z,61.43
2023-01-25T22:45:58.658Z,62.25
2023-01-25T22:48:25.234Z,60.48
2023-01-25T22:50:51.784Z,60.68
2023-01-25T22:53:18.396Z,59.43
2023-01-25T22:55:44.947Z,56.82
2023-01-25T22:58:11.566Z,54.04
2023-01-25T23:00:38.161Z,56.14
2023-01-25T23:03:05.250Z,55.83
2023-01-25T23:05:31.850Z,54.44
2023-01-25T23:07:59.279Z,53.05
2023-01-25T23:10:25.875Z,54.51
2023-01-25T23:12:53.504Z,54.13
2023-01-25T23:15:20.103Z,51.93
2023-01-25T23:18:05.142Z,53.63
2023-01-25T23:20:31.698Z,54.13
2023-01-25T23:22:58.273Z,53.91
2023-01-25T23:25:24.946Z,53.49
2023-01-25T23:27:51.529Z,52.02
2023-01-25T23:30:18.356Z,50.12
2023-01-25T23:32:49.340Z,52.00
2023-01-25T23:35:19.892Z,52.47
2023-01-25T23:37:47.171Z,51.24
2023-01-25T23:40:14.819Z,50.63
2023-01-25T23:42:41.658Z,51.04
2023-01-25T23:45:08.917Z,49.96
2023-01-25T23:47:35.439Z,51.39
2023-01-25T23:50:02.171Z,49.82
2023-01-25T23:52:29.022Z,51.11
2023-01-25T23:54:55.589Z,51.72
2023-01-25T23:57:22.393Z,51.51
2023-01-25T23:59:49.064Z,51.23
